createdAt,value
2019-03-04T00:02:19.540Z,12.60
2019-03-04T00:04:49.794Z,12.60
2019-03-04T00:07:19.064Z,12.70
2019-03-04T00:09:48.333Z,12.70
2019-03-04T00:12:17.601Z,12.80
2019-03-04T00:14:46.875Z,12.80
2019-03-04T00:17:16.142Z,12.80
2019-03-04T00:19:45.697Z,12.90
2019-03-04T00:22:14.967Z,12.90
2019-03-04T00:24:44.237Z,12.90
2019-03-04T00:27:13.514Z,12.90
2019-03-04T00:29:42.792Z,13.00
2019-03-04T00:32:12.064Z,13.00
2019-03-04T00:34:41.348Z,13.00
2019-03-04T00:37:10.616Z,13.00
2019-03-04T00:39:39.899Z,13.00
2019-03-04T00:42:09.169Z,13.00
2019-03-04T00:44:38.452Z,13.00
2019-03-04T00:47:07.733Z,13.00
2019-03-04T00:49:37.003Z,13.00
2019-03-04T00:52:06.276Z,13.00
2019-03-04T00:54:35.555Z,13.00
2019-03-04T00:57:04.864Z,13.10
2019-03-04T00:59:34.127Z,13.10
2019-03-04T01:02:03.472Z,13.20
2019-03-04T01:04:32.732Z,13.20
2019-03-04T01:07:02.005Z,13.20
2019-03-04T01:09:31.268Z,13.20
2019-03-04T01:12:00.542Z,13.20
2019-03-04T01:14:29.803Z,13.20
2019-03-04T01:16:59.082Z,13.20
2019-03-04T01:19:28.345Z,13.30
2019-03-04T01:21:57.630Z,13.20
2019-03-04T01:24:26.888Z,13.20
2019-03-04T01:26:56.159Z,13.20
2019-03-04T01:29:25.435Z,13.20
2019-03-04T01:31:55.786Z,13.20
2019-03-04T01:34:25.066Z,13.20
2019-03-04T01:36:54.328Z,13.20
2019-03-04T01:39:23.594Z,13.10
2019-03-04T01:41:52.869Z,13.10
2019-03-04T01:44:22.130Z,13.10
2019-03-04T01:46:51.400Z,13.10
2019-03-04T01:49:20.672Z,13.10
2019-03-04T01:51:49.963Z,13.00
2019-03-04T01:54:19.223Z,13.00
2019-03-04T01:56:48.502Z,13.00
2019-03-04T01:59:17.770Z,13.00
2019-03-04T02:01:47.039Z,13.00
2019-03-04T02:04:16.305Z,13.00
2019-03-04T02:06:45.593Z,13.00
2019-03-04T02:09:14.866Z,12.90
2019-03-04T02:11:44.204Z,12.90
2019-03-04T02:14:13.482Z,12.90
2019-03-04T02:16:42.740Z,12.90
2019-03-04T02:19:12.009Z,12.90
2019-03-04T02:21:42.245Z,12.80
2019-03-04T02:24:22.829Z,12.80
2019-03-04T02:26:53.133Z,12.80
2019-03-04T02:29:22.402Z,12.80
2019-03-04T02:31:51.680Z,12.80
2019-03-04T02:34:20.963Z,12.80
2019-03-04T02:36:50.547Z,12.80
2019-03-04T02:39:19.834Z,12.80
2019-03-04T02:41:49.117Z,12.80
2019-03-04T02:44:18.386Z,12.80
2019-03-04T02:46:48.624Z,12.80
2019-03-04T02:49:17.903Z,12.80
2019-03-04T02:51:47.164Z,12.80
2019-03-04T02:54:16.444Z,12.80
2019-03-04T02:56:45.710Z,12.80
2019-03-04T02:59:14.997Z,12.80
2019-03-04T03:01:44.305Z,12.90
2019-03-04T03:04:13.572Z,12.90
2019-03-04T03:06:42.837Z,13.00
2019-03-04T03:09:13.317Z,13.00
2019-03-04T03:11:42.580Z,13.10
2019-03-04T03:14:11.860Z,13.10
2019-03-04T03:16:41.130Z,13.10
2019-03-04T03:19:10.396Z,13.20
2019-03-04T03:21:39.661Z,13.20
2019-03-04T03:24:08.935Z,13.30
2019-03-04T03:26:38.196Z,13.30
2019-03-04T03:29:07.504Z,13.30
2019-03-04T03:31:36.762Z,13.30
2019-03-04T03:34:06.040Z,13.30
2019-03-04T03:36:35.312Z,13.30
2019-03-04T03:39:06.124Z,13.30
2019-03-04T03:41:37.375Z,13.30
2019-03-04T03:44:06.637Z,13.20
2019-03-04T03:46:35.915Z,13.20
2019-03-04T03:49:05.172Z,13.10
2019-03-04T03:51:34.456Z,13.10
2019-03-04T03:54:03.786Z,13.10
2019-03-04T03:56:33.120Z,13.00
2019-03-04T03:59:02.452Z,13.00
2019-03-04T04:01:31.733Z,13.00
2019-03-04T04:04:00.998Z,13.00
2019-03-04T04:06:30.271Z,13.00
2019-03-04T04:08:59.543Z,13.10
2019-03-04T04:11:28.821Z,13.10
2019-03-04T04:13:58.081Z,13.20
2019-03-04T04:16:27.353Z,13.20
2019-03-04T04:18:56.629Z,13.30
2019-03-04T04:21:25.910Z,13.30
2019-03-04T04:23:55.199Z,13.30
2019-03-04T04:26:24.452Z,13.30
2019-03-04T04:28:55.361Z,13.30
2019-03-04T04:31:24.628Z,13.30
2019-03-04T04:33:53.894Z,13.30
2019-03-04T04:36:23.177Z,13.30
2019-03-04T04:38:52.438Z,13.30
2019-03-04T04:41:21.709Z,13.30
2019-03-04T04:43:50.976Z,13.20
2019-03-04T04:46:39.719Z,13.20
2019-03-04T04:49:08.990Z,13.20
2019-03-04T04:51:38.288Z,13.20
2019-03-04T04:54:07.550Z,13.20
2019-03-04T04:56:36.821Z,13.20
2019-03-04T04:59:06.101Z,13.10
2019-03-04T05:01:35.369Z,13.10
2019-03-04T05:04:04.731Z,13.10
2019-03-04T05:06:34.001Z,13.00
2019-03-04T05:09:04.514Z,13.00
2019-03-04T05:11:35.411Z,12.90
2019-03-04T05:14:04.688Z,12.90
2019-03-04T05:16:33.959Z,12.90
2019-03-04T05:19:03.233Z,12.90
2019-03-04T05:21:32.504Z,12.90
2019-03-04T05:24:01.777Z,12.80
2019-03-04T05:26:31.032Z,12.80
2019-03-04T05:29:00.318Z,12.80
2019-03-04T05:31:29.569Z,12.80
2019-03-04T05:33:58.899Z,12.80
2019-03-04T05:36:28.172Z,12.80
2019-03-04T05:38:57.453Z,12.80
2019-03-04T05:41:26.720Z,12.80
2019-03-04T05:43:55.996Z,12.80
2019-03-04T05:46:25.257Z,12.80
2019-03-04T05:48:54.528Z,12.80
2019-03-04T05:51:23.808Z,12.80
2019-03-04T05:53:53.080Z,12.80
2019-03-04T05:56:23.182Z,12.80
2019-03-04T05:58:52.441Z,12.80
2019-03-04T06:01:26.937Z,12.80
2019-03-04T06:04:04.839Z,12.90
2019-03-04T06:06:50.865Z,12.90
2019-03-04T06:09:20.137Z,12.90
2019-03-04T06:11:49.404Z,12.90
2019-03-04T06:14:18.680Z,12.90
2019-03-04T06:16:47.944Z,13.00
2019-03-04T06:19:17.225Z,12.80
2019-03-04T06:21:46.492Z,12.00
2019-03-04T06:24:15.770Z,11.10
2019-03-04T06:26:45.038Z,10.30
2019-03-04T06:29:14.304Z,9.70
2019-03-04T06:31:43.564Z,9.20
2019-03-04T06:34:12.886Z,8.90
2019-03-04T06:36:43.248Z,8.60
2019-03-04T06:39:12.517Z,8.40
2019-03-04T06:41:41.775Z,8.40
2019-03-04T06:44:11.054Z,8.30
2019-03-04T06:46:40.308Z,8.30
2019-03-04T06:49:09.592Z,8.30
2019-03-04T06:51:39.150Z,8.30
2019-03-04T06:54:11.471Z,8.20
2019-03-04T06:56:55.734Z,8.20
2019-03-04T06:59:49.752Z,8.10
2019-03-04T07:02:28.186Z,8.00
2019-03-04T07:05:06.312Z,8.00
2019-03-04T07:07:35.584Z,8.00
2019-03-04T07:10:07.864Z,8.00
2019-03-04T07:12:37.130Z,8.00
2019-03-04T07:15:08.132Z,8.10
2019-03-04T07:17:37.392Z,8.20
2019-03-04T07:20:15.314Z,8.20
2019-03-04T07:22:44.572Z,8.30
2019-03-04T07:25:13.829Z,8.40
2019-03-04T07:27:44.414Z,8.50
2019-03-04T07:30:19.112Z,8.60
2019-03-04T07:32:48.372Z,8.60
2019-03-04T07:35:17.659Z,8.60
2019-03-04T07:37:46.908Z,8.60
2019-03-04T07:40:18.633Z,8.70
2019-03-04T07:42:47.896Z,8.70
2019-03-04T07:45:17.156Z,8.80
2019-03-04T07:47:46.425Z,8.90
2019-03-04T07:50:15.688Z,9.00
2019-03-04T07:52:44.974Z,9.10
2019-03-04T07:55:14.310Z,9.20
2019-03-04T07:57:43.602Z,9.30
2019-03-04T08:00:13.121Z,9.40
2019-03-04T08:02:42.398Z,9.50
2019-03-04T08:05:12.597Z,9.50
2019-03-04T08:07:44.208Z,9.50
2019-03-04T08:10:38.818Z,9.60
2019-03-04T08:13:11.156Z,9.60
2019-03-04T08:15:41.055Z,9.60
2019-03-04T08:18:11.294Z,9.60
2019-03-04T08:20:40.570Z,9.60
2019-03-04T08:23:10.208Z,9.60
2019-03-04T08:25:39.658Z,9.70
2019-03-04T08:28:10.265Z,9.70
2019-03-04T08:30:39.688Z,9.70
2019-03-04T08:33:08.962Z,9.70
2019-03-04T08:35:38.229Z,9.70
2019-03-04T08:38:07.505Z,9.70
2019-03-04T08:40:36.768Z,9.70
2019-03-04T08:43:06.033Z,9.70
2019-03-04T08:45:35.306Z,9.70
2019-03-04T08:48:05.545Z,9.80
2019-03-04T08:50:34.814Z,9.90
2019-03-04T08:53:04.160Z,10.00
2019-03-04T08:55:33.440Z,10.10
2019-03-04T08:58:02.720Z,10.20
2019-03-04T09:00:32.544Z,10.30
2019-03-04T09:03:01.821Z,10.30
2019-03-04T09:05:31.114Z,10.40
2019-03-04T09:08:00.398Z,10.50
2019-03-04T09:10:33.333Z,10.60
2019-03-04T09:13:02.631Z,10.70
2019-03-04T09:15:31.891Z,10.70
2019-03-04T09:18:01.225Z,10.80
2019-03-04T09:20:30.501Z,10.80
2019-03-04T09:22:59.783Z,10.90
2019-03-04T09:25:31.798Z,10.90
2019-03-04T09:28:01.207Z,10.90
2019-03-04T09:30:30.504Z,11.00
2019-03-04T09:32:59.784Z,11.00
2019-03-04T09:35:29.054Z,11.00
2019-03-04T09:37:58.333Z,11.10
2019-03-04T09:40:29.945Z,11.10
2019-03-04T09:43:00.280Z,11.10
2019-03-04T09:45:38.387Z,11.20
2019-03-04T09:48:01.503Z,11.20
2019-03-04T09:50:31.409Z,11.30
2019-03-04T09:53:00.689Z,11.30
2019-03-04T09:55:29.968Z,11.30
2019-03-04T09:57:59.333Z,11.30
2019-03-04T10:00:31.532Z,11.40
2019-03-04T10:03:22.251Z,11.30
2019-03-04T10:06:23.438Z,11.40
2019-03-04T10:08:55.855Z,11.40
2019-03-04T10:11:30.935Z,11.50
2019-03-04T10:14:27.353Z,11.50
2019-03-04T10:17:25.273Z,11.60
2019-03-04T10:20:21.253Z,11.60
2019-03-04T10:23:08.524Z,11.60
2019-03-04T10:25:55.424Z,11.70
2019-03-04T10:28:50.468Z,11.70
2019-03-04T10:31:37.969Z,11.70
2019-03-04T10:34:43.491Z,11.60
2019-03-04T10:37:33.180Z,11.60
2019-03-04T10:40:11.235Z,11.60
2019-03-04T10:43:02.910Z,11.60
2019-03-04T10:45:35.271Z,11.60
2019-03-04T10:48:04.820Z,11.60
2019-03-04T10:50:34.102Z,11.70
2019-03-04T10:53:03.449Z,11.70
2019-03-04T10:55:41.469Z,11.70
2019-03-04T10:58:03.797Z,11.70
2019-03-04T11:00:33.195Z,11.70
2019-03-04T11:03:02.465Z,11.80
2019-03-04T11:05:31.736Z,11.80
2019-03-04T11:08:01.017Z,11.80
2019-03-04T11:10:31.480Z,11.80
2019-03-04T11:13:00.757Z,11.90
2019-03-04T11:15:30.033Z,11.90
2019-03-04T11:17:59.300Z,12.00
2019-03-04T11:20:28.577Z,12.00
2019-03-04T11:22:57.920Z,12.00
2019-03-04T11:25:27.462Z,12.00
2019-03-04T11:27:56.736Z,12.00
2019-03-04T11:30:32.356Z,12.00
2019-03-04T11:33:01.629Z,11.90
2019-03-04T11:35:30.904Z,11.80
2019-03-04T11:38:00.175Z,11.30
2019-03-04T11:40:38.795Z,10.50
2019-03-04T11:43:08.104Z,9.70
2019-03-04T11:45:37.375Z,8.90
2019-03-04T11:48:06.708Z,8.30
2019-03-04T11:50:36.050Z,7.90
2019-03-04T11:53:05.331Z,7.50
2019-03-04T11:55:34.608Z,7.40
2019-03-04T11:58:04.000Z,7.10
2019-03-04T12:00:50.012Z,7.00
2019-03-04T12:03:19.290Z,6.90
2019-03-04T12:05:48.570Z,6.80
2019-03-04T12:08:17.908Z,6.80
2019-03-04T12:10:47.168Z,6.70
2019-03-04T12:13:16.437Z,6.70
2019-03-04T12:15:45.701Z,6.70
2019-03-04T12:18:15.137Z,6.70
2019-03-04T12:20:44.400Z,6.70
2019-03-04T12:23:13.672Z,6.70
2019-03-04T12:25:42.951Z,6.80
2019-03-04T12:28:12.232Z,6.80
2019-03-04T12:30:41.480Z,6.80
2019-03-04T12:33:11.035Z,6.90
2019-03-04T12:35:40.312Z,6.90
2019-03-04T12:38:09.585Z,7.00
2019-03-04T12:40:38.922Z,7.00
2019-03-04T12:43:08.652Z,7.10
2019-03-04T12:45:37.952Z,7.10
2019-03-04T12:48:07.225Z,7.20
2019-03-04T12:50:37.524Z,7.20
2019-03-04T12:53:06.864Z,7.20
2019-03-04T12:55:36.118Z,7.20
2019-03-04T12:58:05.394Z,7.30
2019-03-04T13:00:35.995Z,7.30
2019-03-04T13:03:05.336Z,7.40
2019-03-04T13:05:34.613Z,7.50
2019-03-04T13:08:03.887Z,7.50
2019-03-04T13:10:33.256Z,7.60
2019-03-04T13:13:02.496Z,7.60
2019-03-04T13:15:33.498Z,7.70
2019-03-04T13:18:04.012Z,7.90
2019-03-04T13:20:33.264Z,8.00
2019-03-04T13:23:02.535Z,8.10
2019-03-04T13:25:33.444Z,8.10
2019-03-04T13:28:08.257Z,8.20
2019-03-04T13:30:36.485Z,8.20
2019-03-04T13:33:05.902Z,8.30
2019-03-04T13:35:42.121Z,8.30
2019-03-04T13:38:12.403Z,8.30
2019-03-04T13:40:43.253Z,8.40
2019-03-04T13:43:12.530Z,8.40
2019-03-04T13:45:41.795Z,8.40
2019-03-04T13:48:11.073Z,8.40
2019-03-04T13:50:40.420Z,8.40
2019-03-04T13:53:09.679Z,8.50
2019-03-04T13:55:38.955Z,8.60
2019-03-04T13:58:08.234Z,8.60
2019-03-04T14:00:39.917Z,8.70
2019-03-04T14:03:09.331Z,8.90
2019-03-04T14:05:38.600Z,9.00
2019-03-04T14:08:07.945Z,9.20
2019-03-04T14:10:42.646Z,9.50
2019-03-04T14:13:11.906Z,9.70
2019-03-04T14:15:43.581Z,9.90
2019-03-04T14:18:12.919Z,9.90
2019-03-04T14:20:42.185Z,9.80
2019-03-04T14:23:11.452Z,9.70
2019-03-04T14:25:40.998Z,9.70
2019-03-04T14:28:10.265Z,9.60
2019-03-04T14:30:39.529Z,9.50
2019-03-04T14:33:08.798Z,9.30
2019-03-04T14:35:38.065Z,9.20
2019-03-04T14:38:07.328Z,9.10
2019-03-04T14:40:36.609Z,9.10
2019-03-04T14:43:05.871Z,9.00
2019-03-04T14:45:35.158Z,9.00
2019-03-04T14:48:04.425Z,8.90
2019-03-04T14:50:33.766Z,8.90
2019-03-04T14:53:03.024Z,9.00
2019-03-04T14:55:34.812Z,9.10
2019-03-04T14:58:04.155Z,9.20
2019-03-04T15:00:41.744Z,9.30
2019-03-04T15:03:20.705Z,9.50
2019-03-04T15:05:41.978Z,9.70
2019-03-04T15:08:11.232Z,9.80
2019-03-04T15:10:40.502Z,9.80
2019-03-04T15:13:10.188Z,9.90
2019-03-04T15:15:40.871Z,10.10
2019-03-04T15:18:10.128Z,10.20
2019-03-04T15:20:39.471Z,10.30
2019-03-04T15:23:08.741Z,10.80
2019-03-04T15:25:42.981Z,11.00
2019-03-04T15:28:17.217Z,10.90
2019-03-04T15:30:57.244Z,10.80
2019-03-04T15:33:26.509Z,10.70
2019-03-04T15:35:55.780Z,10.60
2019-03-04T15:38:25.057Z,10.60
2019-03-04T15:40:54.324Z,10.40
2019-03-04T15:43:23.619Z,10.20
2019-03-04T15:45:54.531Z,10.10
2019-03-04T15:48:28.301Z,9.90
2019-03-04T15:50:56.992Z,9.80
2019-03-04T15:53:26.261Z,9.70
2019-03-04T15:55:55.541Z,9.60
2019-03-04T15:58:24.871Z,9.60
2019-03-04T16:00:54.142Z,9.60
2019-03-04T16:03:24.494Z,9.60
2019-03-04T16:05:53.776Z,9.50
2019-03-04T16:08:23.045Z,9.50
2019-03-04T16:10:52.304Z,9.50
2019-03-04T16:13:21.602Z,9.50
2019-03-04T16:15:50.867Z,9.50
2019-03-04T16:18:20.217Z,9.60
2019-03-04T16:20:49.553Z,9.60
2019-03-04T16:23:18.819Z,9.60
2019-03-04T16:25:48.087Z,9.60
2019-03-04T16:28:20.113Z,9.50
2019-03-04T16:30:50.118Z,9.50
2019-03-04T16:33:19.458Z,9.50
2019-03-04T16:35:48.720Z,9.50
2019-03-04T16:38:17.980Z,9.40
2019-03-04T16:40:47.253Z,9.40
2019-03-04T16:43:16.518Z,9.30
2019-03-04T16:45:45.784Z,9.30
2019-03-04T16:48:15.045Z,9.20
2019-03-04T16:50:47.022Z,9.20
2019-03-04T16:53:24.987Z,9.10
2019-03-04T16:55:54.318Z,9.10
2019-03-04T16:58:23.592Z,9.00
2019-03-04T17:00:52.870Z,9.00
2019-03-04T17:03:23.817Z,9.00
2019-03-04T17:05:53.067Z,8.90
2019-03-04T17:08:22.371Z,8.90
2019-03-04T17:10:51.688Z,8.90
2019-03-04T17:13:21.031Z,8.90
2019-03-04T17:15:51.260Z,8.90
2019-03-04T17:18:20.532Z,8.80
2019-03-04T17:20:49.848Z,8.80
2019-03-04T17:23:19.124Z,8.70
2019-03-04T17:25:48.404Z,8.70
2019-03-04T17:28:17.742Z,8.70
2019-03-04T17:30:46.997Z,8.70
2019-03-04T17:33:16.440Z,8.70
2019-03-04T17:35:45.704Z,8.60
2019-03-04T17:38:14.971Z,8.60
2019-03-04T17:40:44.266Z,8.60
2019-03-04T17:43:13.540Z,8.60
2019-03-04T17:45:42.880Z,8.60
2019-03-04T17:48:12.152Z,8.60
2019-03-04T17:50:42.881Z,8.50
2019-03-04T17:53:14.349Z,8.50
2019-03-04T17:55:44.664Z,8.50
2019-03-04T17:58:14.096Z,8.50
2019-03-04T18:00:45.025Z,8.50
2019-03-04T18:03:14.300Z,8.40
2019-03-04T18:05:43.577Z,8.40
2019-03-04T18:08:12.916Z,8.40
2019-03-04T18:10:42.199Z,8.40
2019-03-04T18:13:14.396Z,8.40
2019-03-04T18:15:43.940Z,8.40
2019-03-04T18:18:13.819Z,8.40
2019-03-04T18:20:44.319Z,8.40
2019-03-04T18:23:13.596Z,8.30
2019-03-04T18:25:48.731Z,8.30
2019-03-04T18:28:38.467Z,8.30
2019-03-04T18:31:16.598Z,8.30
2019-03-04T18:34:07.817Z,8.30
2019-03-04T18:36:40.168Z,8.30
2019-03-04T18:39:16.526Z,8.20
2019-03-04T18:41:51.757Z,8.20
2019-03-04T18:44:45.312Z,8.20
2019-03-04T18:47:38.072Z,8.20
2019-03-04T18:50:07.791Z,8.20
2019-03-04T18:52:37.076Z,8.10
2019-03-04T18:55:08.591Z,8.10
2019-03-04T18:57:37.857Z,8.10
2019-03-04T19:00:16.024Z,8.10
2019-03-04T19:02:45.650Z,8.10
2019-03-04T19:05:14.981Z,8.10
2019-03-04T19:07:44.256Z,8.10
2019-03-04T19:10:13.663Z,8.10
2019-03-04T19:12:42.939Z,8.10
2019-03-04T19:15:12.214Z,8.00
2019-03-04T19:17:41.498Z,8.00
2019-03-04T19:20:15.761Z,8.00
2019-03-04T19:22:45.260Z,8.00
2019-03-04T19:25:14.993Z,8.00
2019-03-04T19:27:44.347Z,8.00
2019-03-04T19:30:15.053Z,8.00
2019-03-04T19:32:44.470Z,7.90
2019-03-04T19:35:15.184Z,7.90
2019-03-04T19:37:44.533Z,7.90
2019-03-04T19:40:15.968Z,7.80
2019-03-04T19:42:45.267Z,7.80
2019-03-04T19:45:17.153Z,7.70
2019-03-04T19:47:46.716Z,7.70
2019-03-04T19:50:16.043Z,7.70
2019-03-04T19:52:45.329Z,7.60
2019-03-04T19:55:18.006Z,7.60
2019-03-04T19:57:47.556Z,7.60
2019-03-04T20:00:20.668Z,7.60
2019-03-04T20:02:50.177Z,7.60
2019-03-04T20:05:20.259Z,7.50
2019-03-04T20:07:49.703Z,7.50
2019-03-04T20:10:19.409Z,7.50
2019-03-04T20:12:49.822Z,7.50
2019-03-04T20:15:27.310Z,7.40
2019-03-04T20:17:56.772Z,7.40
2019-03-04T20:20:26.085Z,7.40
2019-03-04T20:22:55.352Z,7.40
2019-03-04T20:25:25.663Z,7.30
2019-03-04T20:27:54.936Z,7.30
2019-03-04T20:30:25.616Z,7.30
2019-03-04T20:32:55.056Z,7.40
2019-03-04T20:35:24.391Z,7.40
2019-03-04T20:38:11.829Z,7.40
2019-03-04T20:40:41.233Z,7.40
2019-03-04T20:43:10.510Z,7.50
2019-03-04T20:45:39.778Z,7.50
2019-03-04T20:48:09.045Z,7.50
2019-03-04T20:50:38.319Z,7.60
2019-03-04T20:53:07.596Z,7.60
2019-03-04T20:55:36.869Z,7.60
2019-03-04T20:58:06.256Z,7.70
2019-03-04T21:00:36.743Z,7.70
2019-03-04T21:03:08.216Z,7.70
2019-03-04T21:05:37.956Z,7.70
2019-03-04T21:08:07.968Z,7.60
2019-03-04T21:10:38.400Z,7.40
2019-03-04T21:13:22.116Z,7.20
2019-03-04T21:15:51.828Z,7.00
2019-03-04T21:18:21.556Z,6.90
2019-03-04T21:20:51.131Z,6.70
2019-03-04T21:23:20.405Z,6.60
2019-03-04T21:25:58.824Z,6.50
2019-03-04T21:28:52.075Z,6.30
2019-03-04T21:31:36.607Z,6.30
2019-03-04T21:34:10.978Z,6.20
2019-03-04T21:37:11.800Z,6.10
2019-03-04T21:39:59.047Z,6.10
2019-03-04T21:42:31.391Z,6.10
2019-03-04T21:45:06.551Z,6.10
2019-03-04T21:47:47.934Z,6.10
2019-03-04T21:50:38.633Z,6.10
2019-03-04T21:53:13.698Z,6.10
2019-03-04T21:55:54.304Z,6.20
2019-03-04T21:58:23.573Z,6.20
2019-03-04T22:00:55.918Z,6.30
2019-03-04T22:03:25.194Z,6.30
2019-03-04T22:05:54.534Z,6.30
2019-03-04T22:08:23.880Z,6.30
2019-03-04T22:10:53.160Z,6.40
2019-03-04T22:13:22.430Z,6.40
2019-03-04T22:15:51.723Z,6.40
2019-03-04T22:18:21.035Z,6.50
2019-03-04T22:20:50.332Z,6.50
2019-03-04T22:23:19.726Z,6.50
2019-03-04T22:25:48.983Z,6.60
2019-03-04T22:28:18.238Z,6.60
2019-03-04T22:30:47.504Z,6.60
2019-03-04T22:33:16.772Z,6.70
2019-03-04T22:35:46.059Z,6.70
2019-03-04T22:38:15.319Z,6.80
2019-03-04T22:40:44.595Z,6.90
2019-03-04T22:43:13.857Z,7.00
2019-03-04T22:45:43.132Z,7.10
2019-03-04T22:48:12.402Z,7.20
2019-03-04T22:50:41.754Z,7.20
2019-03-04T22:53:11.023Z,7.30
2019-03-04T22:55:40.845Z,7.30
2019-03-04T22:58:10.091Z,7.40
2019-03-04T23:00:47.040Z,7.40
2019-03-04T23:03:17.612Z,7.40
2019-03-04T23:05:49.828Z,7.50
2019-03-04T23:08:20.129Z,7.50
2019-03-04T23:10:50.943Z,7.50
2019-03-04T23:13:26.102Z,7.50
2019-03-04T23:15:56.714Z,7.50
2019-03-04T23:18:25.979Z,7.50
2019-03-04T23:20:55.251Z,7.50
2019-03-04T23:23:24.531Z,7.50
2019-03-04T23:25:56.271Z,7.50
2019-03-04T23:28:24.768Z,7.40
2019-03-04T23:30:54.037Z,7.40
2019-03-04T23:33:23.307Z,7.40
2019-03-04T23:35:52.641Z,7.40
2019-03-04T23:38:21.911Z,7.40
2019-03-04T23:40:51.176Z,7.40
2019-03-04T23:43:20.439Z,7.50
2019-03-04T23:45:49.711Z,7.40
2019-03-04T23:48:18.993Z,7.50
2019-03-04T23:50:48.253Z,7.50
2019-03-04T23:53:17.527Z,7.50
2019-03-04T23:55:47.265Z,7.50
2019-03-04T23:58:16.541Z,7.50
